Terminal Aerodrome Forecast
Issued by NWS

Home | Current Version | Previous Version | Text Only | Print | Product List | Glossary Off
Versions: 1 2 3 4 5 6 7 8 9 10 11 12 13 14

000
FTUS43 KPAH 211500 AAA
TAFCGI
TAF AMD
KCGI 211525Z 2115/2212 35010G15KT P6SM BKN025
     FM211600 35010G15KT P6SM SKC
     FM220000 35004KT P6SM SKC=

USA.gov is the U.S. government's official web portal to all federal, state and local government web resources and services.